createdAt,value
2022-11-02T00:00:33.779Z,26.50
2022-11-02T00:01:33.848Z,22.70
2022-11-02T00:02:33.856Z,27.00
2022-11-02T00:03:33.752Z,29.20
2022-11-02T00:04:33.755Z,25.90
2022-11-02T00:05:33.736Z,22.60
2022-11-02T00:06:33.724Z,22.40
2022-11-02T00:07:33.723Z,27.60
2022-11-02T00:08:33.709Z,25.60
2022-11-02T00:09:33.701Z,25.00
2022-11-02T00:10:33.683Z,24.70
2022-11-02T00:11:33.673Z,23.50
2022-11-02T00:12:33.664Z,21.60
2022-11-02T00:13:33.661Z,23.60
2022-11-02T00:14:33.679Z,23.90
2022-11-02T00:15:33.640Z,28.30
2022-11-02T00:16:33.624Z,22.80
2022-11-02T00:17:33.614Z,21.30
2022-11-02T00:18:33.608Z,21.90
2022-11-02T00:19:33.606Z,23.80
2022-11-02T00:20:33.583Z,22.60
2022-11-02T00:21:33.574Z,22.30
2022-11-02T00:22:33.572Z,25.00
2022-11-02T00:23:33.557Z,21.00
2022-11-02T00:24:33.556Z,22.70
2022-11-02T00:25:33.536Z,19.50
2022-11-02T00:26:33.524Z,30.90
2022-11-02T00:27:33.517Z,24.10
2022-11-02T00:28:33.516Z,26.50
2022-11-02T00:29:34.116Z,21.20
2022-11-02T00:30:34.489Z,27.00
2022-11-02T00:31:33.476Z,27.80
2022-11-02T00:32:33.465Z,22.80
2022-11-02T00:33:33.460Z,22.50
2022-11-02T00:34:33.461Z,28.60
2022-11-02T00:35:33.440Z,22.90
2022-11-02T00:36:33.435Z,20.40
2022-11-02T00:38:34.409Z,19.50
2022-11-02T00:39:33.408Z,24.20
2022-11-02T00:40:33.387Z,30.00
2022-11-02T00:41:33.380Z,24.40
2022-11-02T00:42:33.371Z,26.90
2022-11-02T00:43:33.359Z,25.80
2022-11-02T00:44:33.364Z,22.60
2022-11-02T00:45:33.344Z,31.60
2022-11-02T00:46:33.330Z,26.30
2022-11-02T00:47:33.321Z,24.50
2022-11-02T00:48:33.308Z,21.60
2022-11-02T00:49:33.313Z,26.00
2022-11-02T00:50:33.285Z,23.70
2022-11-02T00:51:33.285Z,28.20
2022-11-02T00:52:33.266Z,24.00
2022-11-02T00:53:33.258Z,30.80
2022-11-02T00:54:33.259Z,22.00
2022-11-02T00:55:33.244Z,21.70
2022-11-02T00:56:33.244Z,24.00
2022-11-02T00:57:33.224Z,24.50
2022-11-02T00:58:33.215Z,26.80
2022-11-02T00:59:33.213Z,24.20
2022-11-02T01:00:33.192Z,24.80
2022-11-02T01:01:33.246Z,24.20
2022-11-02T01:02:33.301Z,28.70
2022-11-02T01:03:33.160Z,25.40
2022-11-02T01:04:33.164Z,25.00
2022-11-02T01:05:33.141Z,25.50
2022-11-02T01:06:33.134Z,24.60
2022-11-02T01:07:33.136Z,21.20
2022-11-02T01:08:33.112Z,23.30
2022-11-02T01:09:33.119Z,27.70
2022-11-02T01:10:33.116Z,23.70
2022-11-02T01:11:33.081Z,29.20
2022-11-02T01:12:33.088Z,24.20
2022-11-02T01:13:33.067Z,22.30
2022-11-02T01:14:33.067Z,28.60
2022-11-02T01:15:33.050Z,24.70
2022-11-02T01:16:33.090Z,22.10
2022-11-02T01:17:33.029Z,26.40
2022-11-02T01:18:33.026Z,24.20
2022-11-02T01:19:33.028Z,20.50
2022-11-02T01:20:33.000Z,28.00
2022-11-02T01:21:32.989Z,26.60
2022-11-02T01:22:32.979Z,21.00
2022-11-02T01:23:32.970Z,23.30
2022-11-02T01:24:32.971Z,26.30
2022-11-02T01:25:32.954Z,22.90
2022-11-02T01:26:32.938Z,24.80
2022-11-02T01:27:32.940Z,27.30
2022-11-02T01:28:32.919Z,26.70
2022-11-02T01:29:32.919Z,28.20
2022-11-02T01:30:32.909Z,21.10
2022-11-02T01:31:32.894Z,29.60
2022-11-02T01:32:32.886Z,29.70
2022-11-02T01:33:32.874Z,29.20
2022-11-02T01:34:32.878Z,26.70
2022-11-02T01:35:32.853Z,21.50
2022-11-02T01:36:32.842Z,28.50
2022-11-02T01:37:32.836Z,25.70
2022-11-02T01:38:32.854Z,25.40
2022-11-02T01:39:32.823Z,25.10
2022-11-02T01:40:32.806Z,18.60
2022-11-02T01:41:32.793Z,19.10
2022-11-02T01:42:32.784Z,28.40
2022-11-02T01:43:32.776Z,20.30
2022-11-02T01:44:32.776Z,21.50
2022-11-02T01:45:32.753Z,22.90
2022-11-02T01:46:32.747Z,21.40
2022-11-02T01:47:32.741Z,23.10
2022-11-02T01:48:32.730Z,25.40
2022-11-02T01:49:32.729Z,22.30
2022-11-02T01:50:32.708Z,24.70
2022-11-02T01:51:32.734Z,24.60
2022-11-02T01:52:32.699Z,25.60
2022-11-02T01:53:32.679Z,22.90
2022-11-02T01:54:32.684Z,22.80
2022-11-02T01:55:32.663Z,28.80
2022-11-02T01:56:32.655Z,20.80
2022-11-02T01:57:32.640Z,21.50
2022-11-02T01:58:32.630Z,19.10
2022-11-02T01:59:32.635Z,27.20
2022-11-02T02:00:32.611Z,23.60
2022-11-02T02:01:32.732Z,18.80
2022-11-02T02:02:32.847Z,20.00
2022-11-02T02:03:32.592Z,23.70
2022-11-02T02:04:32.585Z,18.90
2022-11-02T02:05:32.570Z,26.30
2022-11-02T02:06:32.562Z,24.40
2022-11-02T02:07:32.554Z,21.00
2022-11-02T02:08:32.539Z,30.00
2022-11-02T02:09:32.541Z,21.90
2022-11-02T02:10:32.523Z,24.50
2022-11-02T02:11:32.509Z,26.50
2022-11-02T02:12:32.496Z,27.30
2022-11-02T02:13:32.497Z,20.20
2022-11-02T02:14:32.496Z,22.30
2022-11-02T02:15:32.473Z,24.40
2022-11-02T02:16:33.679Z,24.90
2022-11-02T02:17:33.456Z,22.30
2022-11-02T02:18:32.446Z,22.50
2022-11-02T02:19:32.450Z,20.20
2022-11-02T02:20:32.429Z,30.60
2022-11-02T02:21:32.413Z,24.00
2022-11-02T02:22:32.409Z,27.10
2022-11-02T02:23:32.402Z,22.10
2022-11-02T02:24:32.411Z,19.20
2022-11-02T02:25:32.378Z,24.30
2022-11-02T02:26:32.372Z,18.20
2022-11-02T02:27:32.359Z,24.50
2022-11-02T02:28:32.358Z,22.20
2022-11-02T02:29:32.352Z,21.80
2022-11-02T02:30:32.331Z,27.70
2022-11-02T02:31:32.318Z,26.10
2022-11-02T02:32:32.313Z,26.40
2022-11-02T02:33:32.306Z,24.90
2022-11-02T02:34:32.301Z,22.80
2022-11-02T02:35:32.281Z,26.90
2022-11-02T02:36:32.289Z,27.60
2022-11-02T02:37:32.262Z,23.30
2022-11-02T02:38:32.251Z,22.90
2022-11-02T02:39:32.255Z,20.40
2022-11-02T02:40:32.237Z,22.50
2022-11-02T02:41:32.231Z,24.30
2022-11-02T02:42:32.222Z,25.20
2022-11-02T02:43:32.205Z,24.30
2022-11-02T02:44:32.274Z,23.60
2022-11-02T02:45:32.189Z,23.70
2022-11-02T02:46:34.537Z,27.70
2022-11-02T02:47:33.162Z,22.80
2022-11-02T02:48:33.161Z,21.80
2022-11-02T02:49:32.264Z,22.60
2022-11-02T02:50:32.143Z,23.10
2022-11-02T02:51:32.136Z,26.20
2022-11-02T02:52:32.122Z,24.90
2022-11-02T02:53:32.112Z,19.20
2022-11-02T02:54:32.114Z,25.70
2022-11-02T02:55:32.092Z,20.90
2022-11-02T02:56:32.084Z,26.80
2022-11-02T02:57:32.078Z,22.70
2022-11-02T02:58:32.063Z,22.90
2022-11-02T02:59:32.065Z,20.90
2022-11-02T03:00:32.040Z,23.50
2022-11-02T03:01:32.143Z,28.40
2022-11-02T03:02:32.114Z,23.80
2022-11-02T03:03:32.014Z,21.70
2022-11-02T03:04:32.010Z,25.10
2022-11-02T03:05:32.029Z,21.90
2022-11-02T03:06:31.979Z,24.70
2022-11-02T03:07:34.005Z,22.10
2022-11-02T03:08:31.958Z,20.30
2022-11-02T03:09:31.959Z,26.20
2022-11-02T03:10:31.941Z,17.60
2022-11-02T03:11:31.937Z,18.20
2022-11-02T03:12:31.925Z,20.40
2022-11-02T03:13:31.920Z,24.90
2022-11-02T03:14:31.915Z,19.60
2022-11-02T03:15:31.893Z,23.60
2022-11-02T03:16:31.891Z,19.80
2022-11-02T03:17:31.897Z,23.80
2022-11-02T03:18:31.864Z,23.20
2022-11-02T03:19:31.863Z,23.10
2022-11-02T03:20:31.841Z,25.50
2022-11-02T03:21:31.829Z,20.80
2022-11-02T03:22:31.823Z,26.80
2022-11-02T03:23:31.811Z,21.90
2022-11-02T03:24:31.811Z,23.80
2022-11-02T03:25:31.794Z,23.30
2022-11-02T03:26:31.778Z,22.30
2022-11-02T03:27:31.771Z,20.40
2022-11-02T03:28:31.759Z,20.00
2022-11-02T03:29:31.787Z,25.50
2022-11-02T03:30:31.742Z,20.70
2022-11-02T03:31:31.729Z,19.20
2022-11-02T03:32:31.726Z,22.70
2022-11-02T03:33:31.710Z,19.10
2022-11-02T03:34:31.715Z,27.60
2022-11-02T03:35:31.691Z,21.80
2022-11-02T03:36:31.690Z,22.50
2022-11-02T03:37:31.671Z,23.20
2022-11-02T03:38:31.659Z,18.40
2022-11-02T03:39:31.662Z,20.60
2022-11-02T03:40:31.639Z,24.00
2022-11-02T03:41:31.633Z,25.40
2022-11-02T03:42:31.622Z,23.90
2022-11-02T03:43:31.613Z,20.10
2022-11-02T03:44:31.608Z,21.40
2022-11-02T03:45:31.592Z,22.10
2022-11-02T03:46:31.579Z,21.40
2022-11-02T03:47:31.571Z,20.10
2022-11-02T03:48:31.559Z,23.90
2022-11-02T03:49:31.562Z,20.00
2022-11-02T03:50:31.549Z,24.10
2022-11-02T03:51:31.536Z,20.60
2022-11-02T03:52:31.531Z,27.60
2022-11-02T03:53:31.512Z,19.20
2022-11-02T03:54:31.513Z,23.20
2022-11-02T03:55:31.484Z,21.40
2022-11-02T03:56:32.482Z,25.50
2022-11-02T03:57:31.468Z,23.60
2022-11-02T03:58:31.462Z,22.60
2022-11-02T03:59:31.470Z,19.80
2022-11-02T04:00:31.437Z,25.00
2022-11-02T04:01:31.547Z,22.00
2022-11-02T04:02:31.528Z,19.40
2022-11-02T04:03:31.409Z,21.30
2022-11-02T04:04:31.412Z,24.00
2022-11-02T04:05:31.393Z,23.20
2022-11-02T04:06:31.385Z,19.40
2022-11-02T04:07:31.376Z,23.50
2022-11-02T04:08:31.367Z,26.70
2022-11-02T04:09:31.374Z,25.70
2022-11-02T04:10:32.350Z,22.60
2022-11-02T04:11:31.337Z,25.40
2022-11-02T04:12:31.329Z,19.90
2022-11-02T04:13:31.312Z,25.50
2022-11-02T04:14:31.312Z,20.40
2022-11-02T04:15:31.297Z,18.30
2022-11-02T04:16:31.289Z,29.10
2022-11-02T04:18:32.261Z,28.00
2022-11-02T04:19:32.268Z,23.90
2022-11-02T04:20:31.249Z,22.30
2022-11-02T04:21:31.238Z,21.70
2022-11-02T04:22:31.231Z,19.40
2022-11-02T04:23:31.222Z,23.00
2022-11-02T04:24:31.217Z,21.00
2022-11-02T04:25:31.202Z,26.20
2022-11-02T04:26:31.189Z,24.30
2022-11-02T04:27:31.202Z,26.80
2022-11-02T04:28:31.170Z,28.00
2022-11-02T04:29:31.167Z,25.50
2022-11-02T04:30:31.150Z,23.90
2022-11-02T04:31:31.140Z,26.40
2022-11-02T04:32:31.132Z,18.00
2022-11-02T04:33:31.120Z,23.20
2022-11-02T04:34:31.124Z,21.80
2022-11-02T04:35:31.106Z,28.40
2022-11-02T04:36:31.092Z,30.20
2022-11-02T04:38:32.094Z,21.50
2022-11-02T04:39:31.078Z,21.40
2022-11-02T04:40:31.057Z,28.20
2022-11-02T04:41:31.050Z,22.20
2022-11-02T04:42:31.037Z,26.80
2022-11-02T04:43:31.030Z,26.60
2022-11-02T04:44:31.032Z,28.10
2022-11-02T04:45:31.010Z,20.70
2022-11-02T04:46:30.995Z,30.20
2022-11-02T04:47:30.988Z,22.60
2022-11-02T04:48:30.977Z,26.40
2022-11-02T04:49:30.984Z,22.00
2022-11-02T04:50:30.996Z,23.30
2022-11-02T04:51:30.951Z,21.60
2022-11-02T04:52:30.945Z,23.40
2022-11-02T04:53:30.931Z,21.90
2022-11-02T04:54:30.930Z,26.20
2022-11-02T04:55:30.915Z,23.40
2022-11-02T04:56:30.908Z,33.60
2022-11-02T04:57:30.911Z,24.80
2022-11-02T04:58:30.890Z,26.70
2022-11-02T04:59:30.887Z,24.50
2022-11-02T05:00:30.881Z,26.70
2022-11-02T05:01:30.981Z,22.30
2022-11-02T05:02:30.947Z,28.40
2022-11-02T05:03:30.841Z,27.30
2022-11-02T05:04:30.838Z,23.40
2022-11-02T05:05:30.813Z,30.00
2022-11-02T05:06:30.803Z,22.30
2022-11-02T05:07:30.795Z,28.50
2022-11-02T05:08:30.787Z,26.60
2022-11-02T05:09:30.787Z,25.20
2022-11-02T05:10:30.768Z,26.30
2022-11-02T05:11:30.758Z,25.50
2022-11-02T05:12:30.748Z,27.30
2022-11-02T05:13:30.734Z,22.40
2022-11-02T05:14:30.734Z,20.80
2022-11-02T05:15:30.718Z,25.00
2022-11-02T05:16:30.706Z,23.20
2022-11-02T05:17:30.693Z,25.70
2022-11-02T05:18:30.689Z,24.50
2022-11-02T05:19:30.690Z,23.80
2022-11-02T05:20:30.666Z,24.40
2022-11-02T05:21:30.660Z,22.70
2022-11-02T05:22:30.678Z,24.80
2022-11-02T05:23:30.644Z,24.60
2022-11-02T05:24:30.637Z,23.40
2022-11-02T05:25:30.620Z,19.60
2022-11-02T05:26:30.605Z,24.80
2022-11-02T05:27:30.599Z,25.30
2022-11-02T05:28:30.586Z,24.20
2022-11-02T05:29:30.588Z,27.60
2022-11-02T05:30:30.570Z,24.80
2022-11-02T05:31:30.567Z,26.70
2022-11-02T05:32:30.550Z,31.80
2022-11-02T05:33:31.012Z,26.40
2022-11-02T05:34:31.545Z,30.80
2022-11-02T05:35:30.520Z,24.00
2022-11-02T05:36:30.511Z,30.00
2022-11-02T05:37:30.498Z,21.10
2022-11-02T05:38:30.559Z,31.50
2022-11-02T05:39:30.489Z,31.60
2022-11-02T05:40:30.469Z,21.60
2022-11-02T05:41:30.461Z,26.10
2022-11-02T05:42:30.444Z,19.20
2022-11-02T05:43:31.445Z,29.00
2022-11-02T05:44:30.446Z,28.50
2022-11-02T05:45:30.427Z,26.30
2022-11-02T05:46:30.407Z,34.30
2022-11-02T05:47:31.404Z,25.50
2022-11-02T05:48:30.397Z,29.00
2022-11-02T05:49:30.397Z,27.00
2022-11-02T05:50:30.375Z,25.50
2022-11-02T05:51:30.366Z,26.50
2022-11-02T05:52:30.343Z,28.50
2022-11-02T05:53:31.342Z,24.00
2022-11-02T05:54:30.343Z,23.00
2022-11-02T05:55:30.325Z,26.90
2022-11-02T05:56:30.316Z,28.20
2022-11-02T05:57:30.305Z,27.50
2022-11-02T05:58:30.295Z,20.50
2022-11-02T05:59:30.304Z,24.20
2022-11-02T06:00:30.272Z,23.20
2022-11-02T06:01:30.298Z,23.30
2022-11-02T06:02:30.260Z,26.30
2022-11-02T06:03:30.248Z,27.60
2022-11-02T06:04:30.250Z,23.20
2022-11-02T06:05:30.276Z,29.80
2022-11-02T06:06:30.220Z,28.90
2022-11-02T06:07:30.212Z,25.70
2022-11-02T06:08:30.200Z,33.90
2022-11-02T06:09:30.201Z,25.20
2022-11-02T06:10:30.180Z,30.50
2022-11-02T06:11:30.194Z,32.80
2022-11-02T06:12:30.162Z,29.70
2022-11-02T06:13:30.151Z,25.20
2022-11-02T06:14:30.158Z,28.70
2022-11-02T06:15:30.132Z,27.00
2022-11-02T06:16:30.119Z,25.60
2022-11-02T06:17:30.117Z,25.60
2022-11-02T06:18:30.101Z,25.30
2022-11-02T06:19:30.107Z,26.70
2022-11-02T06:20:30.090Z,30.30
2022-11-02T06:21:30.070Z,25.70
2022-11-02T06:22:30.063Z,26.60
2022-11-02T06:23:30.054Z,26.00
2022-11-02T06:24:30.057Z,24.00
2022-11-02T06:25:30.033Z,27.20
2022-11-02T06:26:30.021Z,22.60
2022-11-02T06:27:30.019Z,20.00
2022-11-02T06:28:30.008Z,28.60
2022-11-02T06:29:30.007Z,26.40
2022-11-02T06:30:29.983Z,26.70
2022-11-02T06:31:29.968Z,32.30
2022-11-02T06:32:29.961Z,29.10
2022-11-02T06:33:29.955Z,24.80
2022-11-02T06:34:29.952Z,26.20
2022-11-02T06:35:29.929Z,27.90
2022-11-02T06:36:29.928Z,25.80
2022-11-02T06:37:29.912Z,24.40
2022-11-02T06:38:29.906Z,23.30
2022-11-02T06:39:29.954Z,22.80
2022-11-02T06:40:29.881Z,26.10
2022-11-02T06:41:29.869Z,25.80
2022-11-02T06:42:29.861Z,27.40
2022-11-02T06:43:29.847Z,30.90
2022-11-02T06:44:29.852Z,26.90
2022-11-02T06:45:29.834Z,27.90
2022-11-02T06:46:29.823Z,23.30
2022-11-02T06:47:29.800Z,32.10
2022-11-02T06:48:34.910Z,29.60
2022-11-02T06:49:30.806Z,27.10
2022-11-02T06:50:29.786Z,32.00
2022-11-02T06:51:29.769Z,25.80
2022-11-02T06:52:29.765Z,28.70
2022-11-02T06:53:29.753Z,31.00
2022-11-02T06:54:29.755Z,27.00
2022-11-02T06:55:29.743Z,28.20
2022-11-02T06:56:29.723Z,28.10
2022-11-02T06:57:29.715Z,31.10
2022-11-02T06:58:29.700Z,21.40
2022-11-02T06:59:29.704Z,22.70
2022-11-02T07:00:29.832Z,31.00
2022-11-02T07:01:29.797Z,28.90
2022-11-02T07:02:29.798Z,26.70
2022-11-02T07:03:29.654Z,30.10
2022-11-02T07:04:29.655Z,34.20
2022-11-02T07:05:29.632Z,28.10
2022-11-02T07:06:29.623Z,22.70
2022-11-02T07:07:29.612Z,22.40
2022-11-02T07:08:29.640Z,28.80
2022-11-02T07:09:29.607Z,22.20
2022-11-02T07:10:29.587Z,29.80
2022-11-02T07:11:29.577Z,29.90
2022-11-02T07:12:29.564Z,29.90
2022-11-02T07:13:29.555Z,23.80
2022-11-02T07:14:29.548Z,25.80
2022-11-02T07:15:29.534Z,25.40
2022-11-02T07:16:29.525Z,30.40
2022-11-02T07:17:32.215Z,25.10
2022-11-02T07:18:30.520Z,26.80
2022-11-02T07:19:29.494Z,26.30
2022-11-02T07:20:29.485Z,21.70
2022-11-02T07:21:29.476Z,25.20
2022-11-02T07:22:29.468Z,28.50
2022-11-02T07:23:29.470Z,24.50
2022-11-02T07:24:29.449Z,26.60
2022-11-02T07:25:29.440Z,24.10
2022-11-02T07:26:29.427Z,23.10
2022-11-02T07:27:29.420Z,25.00
2022-11-02T07:28:29.418Z,23.40
2022-11-02T07:29:29.395Z,27.60
2022-11-02T07:30:29.388Z,33.00
2022-11-02T07:31:29.375Z,25.00
2022-11-02T07:32:29.370Z,25.90
2022-11-02T07:33:29.372Z,17.40
2022-11-02T07:34:29.353Z,22.90
2022-11-02T07:35:29.335Z,22.90
2022-11-02T07:36:29.345Z,22.20
2022-11-02T07:37:29.319Z,23.60
2022-11-02T07:38:29.302Z,27.10
2022-11-02T07:39:29.310Z,21.90
2022-11-02T07:40:29.293Z,24.00
2022-11-02T07:41:29.275Z,22.00
2022-11-02T07:42:29.266Z,30.20
2022-11-02T07:43:29.252Z,17.20
2022-11-02T07:44:29.255Z,26.20
2022-11-02T07:45:29.237Z,25.90
2022-11-02T07:46:29.220Z,33.70
2022-11-02T07:47:29.208Z,22.20
2022-11-02T07:48:29.198Z,27.10
2022-11-02T07:49:29.203Z,22.00
2022-11-02T07:50:29.192Z,26.30
2022-11-02T07:51:29.171Z,26.00
2022-11-02T07:52:29.158Z,26.30
2022-11-02T07:53:29.161Z,18.90
2022-11-02T07:54:29.140Z,22.30
2022-11-02T07:55:30.133Z,26.00
2022-11-02T07:56:29.121Z,23.30
2022-11-02T07:57:29.112Z,24.20
2022-11-02T07:58:29.108Z,20.50
2022-11-02T07:59:29.104Z,23.50
2022-11-02T08:00:29.078Z,24.40
2022-11-02T08:01:29.115Z,20.60
2022-11-02T08:02:29.076Z,19.80
2022-11-02T08:03:29.139Z,30.20
2022-11-02T08:04:29.049Z,34.70
2022-11-02T08:05:29.046Z,30.20
2022-11-02T08:06:29.013Z,20.60
2022-11-02T08:07:29.002Z,21.80
2022-11-02T08:08:29.019Z,26.10
2022-11-02T08:09:28.987Z,25.30
2022-11-02T08:10:28.974Z,22.00
2022-11-02T08:11:28.961Z,22.20
2022-11-02T08:12:28.955Z,22.70
2022-11-02T08:13:32.837Z,21.10
2022-11-02T08:14:29.947Z,21.70
2022-11-02T08:15:28.924Z,22.60
2022-11-02T08:16:28.911Z,28.10
2022-11-02T08:17:28.901Z,26.80
2022-11-02T08:18:28.892Z,24.10
2022-11-02T08:19:28.893Z,27.10
2022-11-02T08:20:28.869Z,25.10
2022-11-02T08:21:28.858Z,23.00
2022-11-02T08:22:28.851Z,20.20
2022-11-02T08:23:28.846Z,21.30
2022-11-02T08:24:28.827Z,25.40
2022-11-02T08:25:28.824Z,23.30
2022-11-02T08:26:28.806Z,25.20
2022-11-02T08:27:28.793Z,25.30
2022-11-02T08:28:28.809Z,22.90
2022-11-02T08:29:28.775Z,28.30
2022-11-02T08:30:28.765Z,27.10
2022-11-02T08:31:28.775Z,25.90
2022-11-02T08:32:28.739Z,23.50
2022-11-02T08:33:28.743Z,21.50
2022-11-02T08:34:28.722Z,18.90
2022-11-02T08:35:28.709Z,21.70
2022-11-02T08:36:28.702Z,24.30
2022-11-02T08:37:28.689Z,26.70
2022-11-02T08:38:28.697Z,23.40
2022-11-02T08:39:28.682Z,22.30
2022-11-02T08:40:28.660Z,20.00
2022-11-02T08:41:28.649Z,17.80
2022-11-02T08:42:28.636Z,19.80
2022-11-02T08:43:28.649Z,24.00
2022-11-02T08:44:28.615Z,24.20
2022-11-02T08:45:30.383Z,20.80
2022-11-02T08:46:29.596Z,28.50
2022-11-02T08:47:28.588Z,22.80
2022-11-02T08:48:28.603Z,24.30
2022-11-02T08:49:28.567Z,26.00
2022-11-02T08:50:28.565Z,23.70
2022-11-02T08:51:28.549Z,24.20
2022-11-02T08:52:28.539Z,21.90
2022-11-02T08:53:28.568Z,16.10
2022-11-02T08:54:28.521Z,21.00
2022-11-02T08:55:28.513Z,22.60
2022-11-02T08:56:28.533Z,25.00
2022-11-02T08:57:28.487Z,19.20
2022-11-02T08:58:28.503Z,22.90
2022-11-02T08:59:28.473Z,21.60
2022-11-02T09:00:28.463Z,16.10
2022-11-02T09:01:28.514Z,22.50
2022-11-02T09:02:28.496Z,19.50
2022-11-02T09:03:28.453Z,17.40
2022-11-02T09:04:28.418Z,29.30
2022-11-02T09:05:28.411Z,20.60
2022-11-02T09:06:28.392Z,21.50
2022-11-02T09:07:28.386Z,22.80
2022-11-02T09:08:28.828Z,25.90
2022-11-02T09:09:28.369Z,22.00
2022-11-02T09:10:28.356Z,21.90
2022-11-02T09:11:28.347Z,20.20
2022-11-02T09:12:28.337Z,18.50
2022-11-02T09:13:28.432Z,17.50
2022-11-02T09:14:28.446Z,18.10
2022-11-02T09:15:28.314Z,23.90
2022-11-02T09:16:28.295Z,21.60
2022-11-02T09:17:28.289Z,21.40
2022-11-02T09:18:28.288Z,22.00
2022-11-02T09:19:28.262Z,21.00
2022-11-02T09:20:28.255Z,27.10
2022-11-02T09:21:28.238Z,19.90
2022-11-02T09:22:28.240Z,18.70
2022-11-02T09:23:28.228Z,20.80
2022-11-02T09:24:28.204Z,21.20
2022-11-02T09:25:28.198Z,19.30
2022-11-02T09:26:28.193Z,18.80
2022-11-02T09:27:28.180Z,25.90
2022-11-02T09:28:28.188Z,19.10
2022-11-02T09:29:28.165Z,21.20
2022-11-02T09:30:28.151Z,25.90
2022-11-02T09:31:28.138Z,23.30
2022-11-02T09:32:28.133Z,17.50
2022-11-02T09:33:28.136Z,16.90
2022-11-02T09:34:28.110Z,19.40
2022-11-02T09:35:28.100Z,22.50
2022-11-02T09:36:28.088Z,18.20
2022-11-02T09:37:28.083Z,19.10
2022-11-02T09:38:28.162Z,25.60
2022-11-02T09:39:28.057Z,22.30
2022-11-02T09:40:28.046Z,18.50
2022-11-02T09:41:28.034Z,21.50
2022-11-02T09:42:28.026Z,15.30
2022-11-02T09:43:32.192Z,15.20
2022-11-02T09:44:29.004Z,15.10
2022-11-02T09:45:27.992Z,20.10
2022-11-02T09:46:27.985Z,18.90
2022-11-02T09:48:10.877Z,20.70
2022-11-02T09:48:30.227Z,13.90
2022-11-02T09:49:27.954Z,20.10
2022-11-02T09:50:27.954Z,26.90
2022-11-02T09:51:27.994Z,22.80
2022-11-02T09:52:27.921Z,16.30
2022-11-02T09:53:27.921Z,22.40
2022-11-02T09:54:27.899Z,24.10
2022-11-02T09:55:27.886Z,19.20
2022-11-02T09:56:27.879Z,20.80
2022-11-02T09:57:27.867Z,18.20
2022-11-02T09:58:27.871Z,16.70
2022-11-02T09:59:27.849Z,21.10
2022-11-02T10:00:27.834Z,19.10
2022-11-02T10:01:27.907Z,17.00
2022-11-02T10:02:27.834Z,21.00
2022-11-02T10:03:27.819Z,18.30
2022-11-02T10:04:27.795Z,17.60
2022-11-02T10:05:27.788Z,20.30
2022-11-02T10:06:27.779Z,11.80
2022-11-02T10:07:27.825Z,19.30
2022-11-02T10:08:27.766Z,19.40
2022-11-02T10:09:27.751Z,20.70
2022-11-02T10:10:27.739Z,15.40
2022-11-02T10:11:27.780Z,14.40
2022-11-02T10:12:27.724Z,23.80
2022-11-02T10:13:27.725Z,16.60
2022-11-02T10:14:27.700Z,14.60
2022-11-02T10:15:27.691Z,15.40
2022-11-02T10:16:27.677Z,20.00
2022-11-02T10:17:27.674Z,20.50
2022-11-02T10:18:27.676Z,20.60
2022-11-02T10:19:30.234Z,18.50
2022-11-02T10:20:28.639Z,17.60
2022-11-02T10:21:27.632Z,18.80
2022-11-02T10:22:27.619Z,20.10
2022-11-02T10:23:27.616Z,18.90
2022-11-02T10:24:28.600Z,19.90
2022-11-02T10:25:27.587Z,16.40
2022-11-02T10:26:27.580Z,16.30
2022-11-02T10:27:27.580Z,14.80
2022-11-02T10:28:27.685Z,15.50
2022-11-02T10:29:27.546Z,15.70
2022-11-02T10:30:27.541Z,17.50
2022-11-02T10:31:27.530Z,18.00
2022-11-02T10:32:27.536Z,14.40
2022-11-02T10:33:27.523Z,20.00
2022-11-02T10:34:27.508Z,18.30
2022-11-02T10:35:45.858Z,16.40
2022-11-02T10:36:29.486Z,12.20
2022-11-02T10:37:27.463Z,15.30
2022-11-02T10:38:27.473Z,12.20
2022-11-02T10:39:27.446Z,18.80
2022-11-02T10:40:27.430Z,19.40
2022-11-02T10:41:27.440Z,16.90
2022-11-02T10:42:27.418Z,20.20
2022-11-02T10:43:27.418Z,17.20
2022-11-02T10:44:27.411Z,17.20
2022-11-02T10:45:27.384Z,17.00
2022-11-02T10:46:27.377Z,15.20
2022-11-02T10:47:27.358Z,18.10
2022-11-02T10:48:27.365Z,18.00
2022-11-02T10:49:27.352Z,13.20
2022-11-02T10:50:27.332Z,15.60
2022-11-02T10:51:27.320Z,12.00
2022-11-02T10:52:27.311Z,17.30
2022-11-02T10:53:40.640Z,15.70
2022-11-02T10:54:33.280Z,13.40
2022-11-02T10:55:28.287Z,16.80
2022-11-02T10:56:27.269Z,15.10
2022-11-02T10:57:27.263Z,15.00
2022-11-02T10:58:27.271Z,12.50
2022-11-02T10:59:27.244Z,12.20
2022-11-02T11:00:27.262Z,21.00
2022-11-02T11:01:27.409Z,12.00
2022-11-02T11:02:27.214Z,19.00
2022-11-02T11:03:27.227Z,13.50
2022-11-02T11:04:27.193Z,9.60
2022-11-02T11:05:27.185Z,14.00
2022-11-02T11:06:27.173Z,14.00
2022-11-02T11:07:27.169Z,10.90
2022-11-02T11:08:27.153Z,16.50
2022-11-02T11:09:27.156Z,12.30
2022-11-02T11:10:27.132Z,14.30
2022-11-02T11:11:27.121Z,11.60
2022-11-02T11:12:27.107Z,15.10
2022-11-02T11:16:29.072Z,13.50
2022-11-02T11:19:44.399Z,14.10
2022-11-02T11:20:29.046Z,11.30
2022-11-02T11:21:27.020Z,13.60
2022-11-02T11:22:27.014Z,12.80
2022-11-02T11:23:27.003Z,14.00
2022-11-02T11:24:27.043Z,14.40
2022-11-02T11:25:28.202Z,14.60
2022-11-02T11:26:27.966Z,9.90
2022-11-02T11:27:26.961Z,11.50
2022-11-02T11:28:26.950Z,13.90
2022-11-02T11:29:26.951Z,12.60
2022-11-02T11:30:58.439Z,11.30
2022-11-02T11:31:28.940Z,11.00
2022-11-02T11:32:30.238Z,12.00
2022-11-02T11:33:27.898Z,10.30
2022-11-02T11:34:27.906Z,10.80
2022-11-02T11:35:26.878Z,12.90
2022-11-02T11:36:26.886Z,13.60
2022-11-02T11:37:26.860Z,11.50
2022-11-02T11:38:26.863Z,11.50
2022-11-02T11:39:26.855Z,9.40
2022-11-02T11:40:26.832Z,12.60
2022-11-02T11:41:26.820Z,13.20
2022-11-02T11:42:26.811Z,13.90
2022-11-02T11:43:26.799Z,12.50
2022-11-02T11:44:26.801Z,6.50
2022-11-02T11:45:26.774Z,11.20
2022-11-02T11:46:26.768Z,13.50
2022-11-02T11:47:26.758Z,12.30
2022-11-02T11:48:26.744Z,17.00
2022-11-02T11:49:36.335Z,10.40
2022-11-02T11:50:29.160Z,9.70
2022-11-02T11:51:26.745Z,12.40
2022-11-02T11:52:31.224Z,18.80
2022-11-02T11:53:28.694Z,14.10
2022-11-02T11:54:26.697Z,11.70
2022-11-02T11:55:26.674Z,13.00
2022-11-02T11:56:26.660Z,12.40
2022-11-02T11:57:26.705Z,14.80
2022-11-02T11:58:26.637Z,13.50
2022-11-02T11:59:26.643Z,14.30
2022-11-02T12:00:26.626Z,12.40
2022-11-02T12:01:26.683Z,11.80
2022-11-02T12:02:27.504Z,8.80
2022-11-02T12:03:26.632Z,12.00
2022-11-02T12:04:26.588Z,12.10
2022-11-02T12:05:26.608Z,11.00
2022-11-02T12:06:26.558Z,9.80
2022-11-02T12:07:26.545Z,13.20
2022-11-02T12:08:26.531Z,10.50
2022-11-02T12:09:26.535Z,8.70
2022-11-02T12:10:26.509Z,11.40
2022-11-02T12:11:26.498Z,13.20
2022-11-02T12:12:26.493Z,8.50
2022-11-02T12:13:26.483Z,10.90
2022-11-02T12:14:26.484Z,10.90
2022-11-02T12:15:26.464Z,11.60
2022-11-02T12:16:26.449Z,11.90
2022-11-02T12:17:26.441Z,10.20
2022-11-02T12:18:26.428Z,12.50
2022-11-02T12:19:29.722Z,13.50
2022-11-02T12:20:27.411Z,11.00
2022-11-02T12:21:26.401Z,17.80
2022-11-02T12:22:26.387Z,11.30
2022-11-02T12:23:26.379Z,15.00
2022-11-02T12:24:26.378Z,11.00
2022-11-02T12:25:26.359Z,11.30
2022-11-02T12:26:26.350Z,9.10
2022-11-02T12:27:26.334Z,8.50
2022-11-02T12:28:26.325Z,13.70
2022-11-02T12:29:26.331Z,11.90
2022-11-02T12:30:26.301Z,12.20
2022-11-02T12:31:26.303Z,12.00
2022-11-02T12:32:26.283Z,15.10
2022-11-02T12:33:26.266Z,12.90
2022-11-02T12:34:26.269Z,10.50
2022-11-02T12:35:29.575Z,13.60
2022-11-02T12:36:27.240Z,8.90
2022-11-02T12:37:39.145Z,11.50
2022-11-02T12:38:28.221Z,12.00
2022-11-02T12:39:26.220Z,12.70
2022-11-02T12:41:27.189Z,11.30
2022-11-02T12:42:26.188Z,11.00
2022-11-02T12:43:26.169Z,15.90
2022-11-02T12:44:26.176Z,13.20
2022-11-02T12:45:26.141Z,10.30
2022-11-02T12:46:27.143Z,12.00
2022-11-02T12:47:26.150Z,9.60
2022-11-02T12:48:26.121Z,11.10
2022-11-02T12:49:26.119Z,15.20
2022-11-02T12:50:26.103Z,9.30
2022-11-02T12:51:26.127Z,12.80
2022-11-02T12:52:26.081Z,11.90
2022-11-02T12:53:26.152Z,9.70
2022-11-02T12:54:26.063Z,12.20
2022-11-02T12:55:26.047Z,12.80
2022-11-02T12:56:26.042Z,11.20
2022-11-02T12:57:26.028Z,14.10
2022-11-02T12:58:26.015Z,11.50
2022-11-02T12:59:26.022Z,14.50
2022-11-02T13:00:26.021Z,12.40
2022-11-02T13:01:26.202Z,11.60
2022-11-02T13:02:25.980Z,14.30